Time;durP1;ratioP1;P1;durP2;ratioP2;P2;SDS_P1;SDS_P2;PMS_P1;PMS_P2;Temp;Humidity;BMP_temperature;BMP_pressure;BME280_temperature;BME280_humidity;BME280_pressure;Samples;Min_cycle;Max_cycle;Signal;HPM_P1;HPM_P2
2023/11/03 00:00:19;;;;;;;0.20;0.20;;;;;;;10.89;71.99;97568.28;5081725;28;20048;-82
2023/11/03 00:02:45;;;;;;;0.10;0.10;;;;;;;10.92;72.30;97578.69;5079382;28;20419;-80
2023/11/03 00:05:12;;;;;;;0.20;0.20;;;;;;;10.74;73.06;97586.16;5084586;28;20033;-80
2023/11/03 00:07:39;;;;;;;0.20;0.20;;;;;;;10.67;72.92;97599.84;5086839;28;20552;-78
2023/11/03 00:10:09;;;;;;;0.20;0.20;;;;;;;10.70;72.34;97590.81;5082875;28;20063;-79
2023/11/03 00:12:36;;;;;;;0.20;0.20;;;;;;;10.62;72.97;97590.56;5088527;28;20439;-80
2023/11/03 00:15:03;;;;;;;4.38;2.10;;;;;;;10.68;72.92;97595.41;5073369;28;20123;-81
2023/11/03 00:17:29;;;;;;;0.47;0.47;;;;;;;10.67;73.22;97602.47;5088000;28;20041;-81
2023/11/03 00:19:55;;;;;;;0.10;0.10;;;;;;;10.67;73.01;97622.84;5078128;28;20028;-80
2023/11/03 00:22:23;;;;;;;0.25;0.25;;;;;;;10.57;73.28;97601.47;5082302;28;20092;-79
2023/11/03 00:24:49;;;;;;;0.30;0.30;;;;;;;10.71;73.63;97597.81;5082432;28;20064;-82
2023/11/03 00:27:16;;;;;;;0.20;0.20;;;;;;;10.65;73.69;97609.72;5079786;28;20032;-80
2023/11/03 00:29:42;;;;;;;0.20;0.20;;;;;;;10.63;73.15;97624.84;5084210;28;20039;-80
2023/11/03 00:32:08;;;;;;;0.20;0.20;;;;;;;10.77;73.24;97628.31;5073027;28;20040;-80
2023/11/03 00:34:34;;;;;;;0.10;0.10;;;;;;;10.84;73.23;97626.88;5080335;28;20040;-79
2023/11/03 00:37:01;;;;;;;0.20;0.20;;;;;;;10.79;72.86;97626.38;5077138;28;20108;-78
2023/11/03 00:39:28;;;;;;;0.20;0.20;;;;;;;10.89;73.50;97622.13;5088118;28;20028;-79
2023/11/03 00:41:54;;;;;;;0.20;0.20;;;;;;;10.83;73.57;97622.56;5074444;28;20499;-80
2023/11/03 00:44:20;;;;;;;0.10;0.10;;;;;;;10.90;73.64;97623.78;5079788;28;20029;-80
2023/11/03 00:46:49;;;;;;;0.20;0.20;;;;;;;10.88;73.68;97630.16;5077265;28;20036;-79
2023/11/03 00:49:15;;;;;;;0.10;0.10;;;;;;;10.86;73.77;97642.69;5083706;28;20051;-80
2023/11/03 00:51:41;;;;;;;0.17;0.17;;;;;;;10.88;74.05;97631.03;5079207;28;20036;-81
2023/11/03 00:54:09;;;;;;;0.17;0.17;;;;;;;10.93;73.33;97635.97;5077946;28;20039;-81
2023/11/03 00:56:35;;;;;;;0.10;0.10;;;;;;;10.77;74.04;97634.44;5081980;28;20424;-80
2023/11/03 00:59:03;;;;;;;0.20;0.20;;;;;;;10.72;74.36;97667.53;5083440;28;20029;-80
2023/11/03 01:01:29;;;;;;;0.20;0.20;;;;;;;10.88;73.91;97651.34;5082869;28;20023;-78
2023/11/03 01:03:56;;;;;;;5.22;1.30;;;;;;;10.81;73.64;97656.25;5083864;28;20097;-78
2023/11/03 01:06:22;;;;;;;0.10;0.10;;;;;;;10.76;74.13;97659.22;5086109;28;20036;-78
2023/11/03 01:08:53;;;;;;;0.10;0.10;;;;;;;10.79;74.56;97663.44;5094956;28;20032;-80
2023/11/03 01:11:23;;;;;;;0.20;0.20;;;;;;;10.70;74.28;97664.97;5081986;28;20036;-81
2023/11/03 01:13:50;;;;;;;0.20;0.20;;;;;;;10.82;73.86;97668.53;5088513;28;20017;-80
2023/11/03 01:16:16;;;;;;;0.10;0.10;;;;;;;10.73;74.29;97690.38;5080428;28;20679;-80
2023/11/03 01:18:43;;;;;;;0.13;0.13;;;;;;;10.94;73.93;97677.38;5089098;28;20024;-79
2023/11/03 01:21:15;;;;;;;0.47;0.47;;;;;;;10.89;74.18;97676.88;5085235;28;20453;-81
2023/11/03 01:23:42;;;;;;;0.20;0.20;;;;;;;10.70;74.63;97690.59;5095619;28;20027;-80
2023/11/03 01:26:10;;;;;;;0.20;0.20;;;;;;;10.79;74.78;97679.34;5084756;28;20052;-81
2023/11/03 01:28:36;;;;;;;0.10;0.10;;;;;;;10.90;73.95;97687.34;5094683;28;20448;-81
2023/11/03 01:31:04;;;;;;;0.20;0.20;;;;;;;10.87;74.25;97686.75;5085583;28;20070;-80
2023/11/03 01:33:31;;;;;;;0.15;0.15;;;;;;;10.88;73.95;97684.00;5083124;28;20024;-80
2023/11/03 01:35:58;;;;;;;0.10;0.10;;;;;;;10.92;73.93;97688.09;5086324;28;20111;-80
2023/11/03 01:38:24;;;;;;;0.25;0.25;;;;;;;10.83;74.42;97691.44;5087918;28;20047;-79
2023/11/03 01:40:51;;;;;;;0.20;0.20;;;;;;;10.86;75.10;97685.91;5086438;28;20078;-81
2023/11/03 01:43:17;;;;;;;0.10;0.10;;;;;;;10.94;75.03;97688.84;5085945;28;20043;-80
2023/11/03 01:45:43;;;;;;;1.10;1.00;;;;;;;10.88;74.44;97694.59;5079169;28;20052;-80
2023/11/03 01:48:09;;;;;;;0.20;0.20;;;;;;;10.99;74.84;97713.22;5085022;28;20411;-81
2023/11/03 01:50:36;;;;;;;0.20;0.20;;;;;;;11.06;74.26;97703.00;5079153;28;20024;-81
2023/11/03 01:53:03;;;;;;;0.10;0.10;;;;;;;11.03;74.59;97702.38;5085111;28;20498;-80
2023/11/03 01:55:30;;;;;;;0.10;0.10;;;;;;;11.12;75.11;97707.03;5081427;28;20548;-80
2023/11/03 01:57:58;;;;;;;0.20;0.20;;;;;;;11.06;74.80;97715.41;5086723;28;20017;-81
2023/11/03 02:00:25;;;;;;;0.10;0.10;;;;;;;11.10;74.58;97701.84;5087191;28;20028;-80
2023/11/03 02:02:54;;;;;;;0.10;0.10;;;;;;;11.09;75.30;97712.53;5084829;28;20024;-82
2023/11/03 02:05:20;;;;;;;0.10;0.10;;;;;;;11.06;75.01;97718.06;5085683;28;20051;-80
2023/11/03 02:07:48;;;;;;;0.20;0.20;;;;;;;10.84;76.04;97715.16;5083114;28;20020;-80
2023/11/03 02:10:14;;;;;;;0.10;0.10;;;;;;;11.04;75.79;97714.66;5081647;28;20115;-80
2023/11/03 02:12:41;;;;;;;0.10;0.10;;;;;;;10.98;75.83;97723.91;5075334;28;20025;-79
2023/11/03 02:15:07;;;;;;;0.10;0.10;;;;;;;11.09;75.92;97713.38;5084270;28;20041;-80
2023/11/03 02:17:35;;;;;;;0.40;0.40;;;;;;;10.98;75.94;97706.22;5088949;28;20028;-82
2023/11/03 02:20:06;;;;;;;0.20;0.20;;;;;;;11.11;75.09;97714.09;5081106;28;20033;-80
2023/11/03 02:22:32;;;;;;;0.00;0.00;;;;;;;11.08;75.34;97716.13;5084872;28;20031;-80
2023/11/03 02:24:58;;;;;;;0.10;0.10;;;;;;;11.08;76.08;97708.19;5080692;28;20031;-81
2023/11/03 02:27:25;;;;;;;0.20;0.20;;;;;;;11.10;75.55;97716.88;5084064;28;20487;-83
2023/11/03 02:29:52;;;;;;;0.10;0.10;;;;;;;11.06;76.08;97715.41;5077316;28;20445;-81
2023/11/03 02:32:18;;;;;;;0.10;0.10;;;;;;;11.08;76.19;97722.28;5080542;28;20029;-80
2023/11/03 02:34:44;;;;;;;0.20;0.20;;;;;;;11.05;76.08;97719.00;5077865;28;20033;-79
2023/11/03 02:37:10;;;;;;;0.98;0.93;;;;;;;11.07;75.99;97714.47;5086155;28;20039;-79
2023/11/03 02:39:38;;;;;;;0.20;0.20;;;;;;;11.06;75.88;97715.41;5090271;28;20054;-79
2023/11/03 02:42:04;;;;;;;0.20;0.20;;;;;;;11.20;76.26;97725.84;5077695;28;20044;-79
2023/11/03 02:44:31;;;;;;;0.10;0.10;;;;;;;11.02;76.34;97735.16;5083768;28;20067;-80
2023/11/03 02:46:57;;;;;;;0.52;0.52;;;;;;;11.17;75.66;97731.38;5085545;28;20058;-79
2023/11/03 02:49:23;;;;;;;0.10;0.10;;;;;;;11.11;76.07;97731.81;5089514;28;20066;-80
2023/11/03 02:51:49;;;;;;;0.10;0.10;;;;;;;10.95;75.94;97743.53;5092671;28;20032;-79
2023/11/03 02:54:15;;;;;;;0.20;0.20;;;;;;;10.94;76.91;97747.13;5093881;28;20031;-80
2023/11/03 02:56:41;;;;;;;8.63;1.98;;;;;;;11.03;76.01;97739.47;5089895;28;20032;-80
2023/11/03 02:59:08;;;;;;;0.20;0.20;;;;;;;11.05;76.17;97753.44;5082777;28;20060;-80
2023/11/03 03:01:39;;;;;;;0.10;0.10;;;;;;;11.03;75.78;97750.06;5090583;28;20035;-80
2023/11/03 03:04:05;;;;;;;0.10;0.10;;;;;;;11.05;75.43;97756.09;5092199;28;20122;-81
2023/11/03 03:06:32;;;;;;;0.20;0.20;;;;;;;10.93;76.36;97766.63;5090276;28;20036;-81
2023/11/03 03:08:59;;;;;;;0.10;0.10;;;;;;;10.94;76.12;97763.03;5090813;28;20040;-81
2023/11/03 03:11:25;;;;;;;0.20;0.20;;;;;;;10.88;76.16;97774.06;5083657;28;20052;-80
2023/11/03 03:13:51;;;;;;;0.10;0.10;;;;;;;10.89;75.94;97765.16;5088570;28;20032;-80
2023/11/03 03:16:18;;;;;;;0.15;0.15;;;;;;;10.96;75.88;97766.38;5090304;28;20115;-81
2023/11/03 03:18:44;;;;;;;0.10;0.10;;;;;;;10.89;76.37;97770.44;5089361;28;20112;-82
2023/11/03 03:21:10;;;;;;;0.10;0.10;;;;;;;11.04;75.97;97772.94;5084161;28;20036;-79
2023/11/03 03:23:36;;;;;;;0.10;0.10;;;;;;;10.96;76.24;97781.44;5097231;28;20035;-80
2023/11/03 03:26:02;;;;;;;0.22;0.22;;;;;;;11.00;75.83;97783.78;5089619;28;20104;-79
2023/11/03 03:28:28;;;;;;;0.15;0.15;;;;;;;10.94;75.55;97789.50;5083645;28;20505;-80
2023/11/03 03:30:54;;;;;;;0.25;0.25;;;;;;;10.82;75.97;97796.50;5087307;28;20043;-81
2023/11/03 03:33:21;;;;;;;0.20;0.20;;;;;;;10.89;76.00;97772.25;5082888;28;20043;-81
2023/11/03 03:35:47;;;;;;;0.20;0.20;;;;;;;10.86;76.31;97791.00;5085235;28;20097;-79
2023/11/03 03:38:13;;;;;;;0.10;0.10;;;;;;;10.87;75.86;97782.94;5076973;28;20035;-79
2023/11/03 03:40:39;;;;;;;0.20;0.20;;;;;;;10.72;77.26;97797.28;5088922;28;20395;-81
2023/11/03 03:43:05;;;;;;;0.10;0.10;;;;;;;10.86;76.46;97799.78;5081009;28;20031;-80
2023/11/03 03:45:31;;;;;;;0.10;0.10;;;;;;;10.84;76.38;97799.91;5085668;28;20054;-80
2023/11/03 03:47:57;;;;;;;0.93;0.93;;;;;;;10.79;76.53;97809.09;5084703;28;20016;-80
2023/11/03 03:50:23;;;;;;;0.20;0.20;;;;;;;10.90;76.50;97816.31;5073518;28;20040;-79
2023/11/03 03:52:49;;;;;;;0.15;0.15;;;;;;;10.82;76.71;97827.44;5082535;28;20107;-80
2023/11/03 03:55:15;;;;;;;0.10;0.10;;;;;;;10.65;77.46;97826.81;5090377;28;20112;-79
2023/11/03 03:57:42;;;;;;;0.20;0.20;;;;;;;10.61;77.50;97833.25;5084089;28;20024;-81
2023/11/03 04:00:08;;;;;;;0.20;0.20;;;;;;;10.92;76.33;97840.91;5082790;28;20111;-80
2023/11/03 04:02:34;;;;;;;0.20;0.20;;;;;;;10.88;77.00;97831.47;5090652;28;20032;-81
2023/11/03 04:05:02;;;;;;;0.10;0.10;;;;;;;10.85;77.21;97829.88;5085551;28;20024;-80
2023/11/03 04:07:28;;;;;;;0.20;0.20;;;;;;;10.89;77.03;97823.44;5076859;28;20031;-81
2023/11/03 04:09:54;;;;;;;0.10;0.10;;;;;;;10.87;76.64;97838.56;5082657;28;20059;-80
2023/11/03 04:12:20;;;;;;;0.15;0.15;;;;;;;10.86;77.19;97844.81;5082822;28;20155;-79
2023/11/03 04:14:46;;;;;;;0.10;0.10;;;;;;;10.86;76.87;97844.81;5083852;28;20209;-80
2023/11/03 04:17:12;;;;;;;4.03;3.20;;;;;;;10.80;77.35;97839.94;5083695;28;20039;-80
2023/11/03 04:19:38;;;;;;;0.10;0.10;;;;;;;10.79;77.38;97838.25;5083414;28;20028;-80
2023/11/03 04:22:04;;;;;;;0.30;0.30;;;;;;;10.84;77.31;97846.72;5086361;28;20051;-81
2023/11/03 04:24:30;;;;;;;0.10;0.10;;;;;;;10.82;77.46;97844.19;5078154;28;20099;-81
2023/11/03 04:26:56;;;;;;;0.20;0.20;;;;;;;10.93;76.89;97861.97;5078630;28;20024;-81
2023/11/03 04:29:23;;;;;;;0.20;0.20;;;;;;;10.76;77.83;97860.50;5086997;28;20056;-81
2023/11/03 04:31:49;;;;;;;0.10;0.10;;;;;;;10.79;77.88;97877.97;5088782;28;20024;-80
2023/11/03 04:34:15;;;;;;;0.10;0.10;;;;;;;10.94;77.51;97865.47;5085222;28;20387;-81
2023/11/03 04:36:42;;;;;;;0.15;0.15;;;;;;;10.98;77.61;97870.44;5087939;28;20032;-80
2023/11/03 04:39:08;;;;;;;0.13;0.13;;;;;;;10.84;77.74;97894.38;5081950;28;20094;-80
2023/11/03 04:41:34;;;;;;;0.10;0.10;;;;;;;10.89;77.63;97881.69;5085794;28;20573;-81
2023/11/03 04:44:00;;;;;;;0.10;0.10;;;;;;;10.93;77.37;97883.19;5089956;28;20388;-81
2023/11/03 04:46:28;;;;;;;0.10;0.10;;;;;;;10.98;77.37;97881.06;5091176;28;20525;-81
2023/11/03 04:48:54;;;;;;;0.10;0.10;;;;;;;10.82;78.35;97880.41;5086094;28;20092;-81
2023/11/03 04:51:20;;;;;;;0.10;0.10;;;;;;;10.73;78.28;97891.63;5084147;28;20036;-80
2023/11/03 04:53:47;;;;;;;0.20;0.20;;;;;;;10.83;77.09;97893.56;5085450;28;20033;-80
2023/11/03 04:56:13;;;;;;;0.10;0.10;;;;;;;10.70;78.05;97897.16;5084791;28;20077;-80
2023/11/03 04:58:39;;;;;;;0.10;0.10;;;;;;;10.90;77.71;97899.25;5072965;28;20021;-82
2023/11/03 05:01:05;;;;;;;0.10;0.10;;;;;;;10.70;77.62;97907.72;5088093;28;20025;-81
2023/11/03 05:03:31;;;;;;;0.82;0.82;;;;;;;10.81;77.23;97921.94;5083814;28;20024;-82
2023/11/03 05:05:58;;;;;;;0.10;0.10;;;;;;;10.89;77.23;97907.31;5084649;28;20127;-81
2023/11/03 05:08:24;;;;;;;0.20;0.20;;;;;;;10.79;77.26;97912.41;5086008;28;20040;-81
2023/11/03 05:10:50;;;;;;;0.20;0.20;;;;;;;10.94;76.71;97905.19;5084316;28;20032;-81
2023/11/03 05:13:16;;;;;;;0.10;0.10;;;;;;;10.83;77.42;97916.56;5091770;28;20078;-81
2023/11/03 05:15:43;;;;;;;0.20;0.20;;;;;;;11.00;76.86;97913.59;5095363;28;20031;-81
2023/11/03 05:18:12;;;;;;;0.10;0.10;;;;;;;10.90;77.13;97927.56;5090224;28;20120;-81
2023/11/03 05:20:38;;;;;;;0.17;0.17;;;;;;;11.03;76.68;97920.47;5088706;28;20017;-80
2023/11/03 05:23:04;;;;;;;0.20;0.20;;;;;;;10.94;76.80;97916.66;5090898;28;20028;-81
2023/11/03 05:25:30;;;;;;;0.10;0.10;;;;;;;11.11;75.96;97931.38;5085341;28;20503;-80
2023/11/03 05:27:56;;;;;;;0.20;0.20;;;;;;;11.13;75.88;97918.88;5087550;28;20027;-80
2023/11/03 05:30:22;;;;;;;0.20;0.20;;;;;;;11.09;76.00;97924.50;5093058;28;20080;-79
2023/11/03 05:32:49;;;;;;;1.00;1.00;;;;;;;10.78;77.73;97932.75;5092844;28;20020;-80
2023/11/03 05:35:16;;;;;;;0.10;0.10;;;;;;;10.94;77.00;97940.50;5087320;28;20556;-80
2023/11/03 05:37:42;;;;;;;0.15;0.15;;;;;;;10.89;76.47;97950.56;5081467;28;20016;-80
2023/11/03 05:40:11;;;;;;;0.20;0.20;;;;;;;10.89;76.72;97945.28;5090357;28;20029;-78
2023/11/03 05:42:38;;;;;;;0.10;0.10;;;;;;;11.07;75.82;97939.66;5083462;28;20055;-80
2023/11/03 05:45:05;;;;;;;0.20;0.20;;;;;;;10.90;76.23;97956.69;5090607;28;20032;-81
2023/11/03 05:47:31;;;;;;;0.20;0.20;;;;;;;11.22;75.55;97954.50;5087891;28;20024;-80
2023/11/03 05:50:02;;;;;;;0.10;0.10;;;;;;;11.07;76.12;97969.66;5092635;28;20032;-81
2023/11/03 05:52:30;;;;;;;0.20;0.20;;;;;;;11.09;76.40;97977.47;5087245;28;20058;-80
2023/11/03 05:54:56;;;;;;;0.15;0.15;;;;;;;11.13;76.15;97987.78;5079446;28;20047;-81
2023/11/03 05:57:22;;;;;;;0.13;0.13;;;;;;;11.10;75.90;97985.34;5082398;28;20025;-81
2023/11/03 05:59:48;;;;;;;0.10;0.10;;;;;;;10.97;76.35;97998.56;5082817;28;20032;-81
2023/11/03 06:02:15;;;;;;;0.10;0.10;;;;;;;10.93;76.49;98004.16;5075755;28;20483;-82
2023/11/03 06:04:42;;;;;;;0.17;0.17;;;;;;;11.03;76.83;98007.03;5086869;28;20042;-81
2023/11/03 06:07:09;;;;;;;0.47;0.47;;;;;;;11.06;76.51;98025.41;5082577;28;20069;-81
2023/11/03 06:09:35;;;;;;;0.13;0.13;;;;;;;11.09;76.39;98020.75;5091353;28;20050;-82
2023/11/03 06:12:02;;;;;;;0.10;0.10;;;;;;;11.04;76.21;98028.16;5089016;28;20449;-81
2023/11/03 06:14:28;;;;;;;0.15;0.15;;;;;;;11.27;76.13;98034.53;5090365;28;20028;-81
2023/11/03 06:16:54;;;;;;;0.10;0.10;;;;;;;11.19;75.56;98038.66;5087938;28;20032;-81
2023/11/03 06:19:21;;;;;;;0.20;0.20;;;;;;;11.26;75.93;98037.31;5090698;28;20028;-82
2023/11/03 06:21:47;;;;;;;0.28;0.28;;;;;;;11.05;75.99;98050.19;5090788;28;20032;-82
2023/11/03 06:24:14;;;;;;;0.20;0.20;;;;;;;11.11;76.65;98049.78;5084442;28;20032;-82
2023/11/03 06:26:40;;;;;;;0.10;0.10;;;;;;;11.21;75.68;98045.56;5081078;28;20035;-81
2023/11/03 06:29:06;;;;;;;0.20;0.20;;;;;;;11.28;75.59;98041.53;5084133;28;20032;-80
2023/11/03 06:31:33;;;;;;;0.10;0.10;;;;;;;11.35;75.31;98046.44;5089808;28;20034;-81
2023/11/03 06:33:59;;;;;;;0.20;0.20;;;;;;;11.25;75.57;98056.81;5086725;28;20020;-82
2023/11/03 06:36:25;;;;;;;0.10;0.10;;;;;;;11.28;75.69;98062.75;5090186;28;20029;-83
2023/11/03 06:38:51;;;;;;;0.20;0.20;;;;;;;11.23;75.49;98064.88;5087298;28;20036;-82
2023/11/03 06:41:20;;;;;;;0.10;0.10;;;;;;;11.17;75.83;98086.47;5086908;28;20033;-83
2023/11/03 06:43:46;;;;;;;1.80;0.35;;;;;;;11.15;75.93;98088.38;5087061;28;20564;-80
2023/11/03 06:46:12;;;;;;;0.10;0.10;;;;;;;11.18;75.86;98093.47;5089177;28;20024;-80
2023/11/03 06:48:38;;;;;;;0.32;0.32;;;;;;;11.07;76.28;98103.94;5083176;28;20568;-78
2023/11/03 06:51:10;;;;;;;0.10;0.10;;;;;;;11.29;76.00;98111.28;5088068;28;20032;-78
2023/11/03 06:53:36;;;;;;;0.85;0.85;;;;;;;11.16;76.06;98098.03;5077213;28;20445;-79
2023/11/03 06:56:02;;;;;;;0.10;0.10;;;;;;;11.15;75.95;98098.97;5080394;28;20037;-81
2023/11/03 06:58:28;;;;;;;0.20;0.20;;;;;;;11.14;75.83;98110.50;5084038;28;20080;-80
2023/11/03 07:00:54;;;;;;;0.13;0.13;;;;;;;11.26;75.53;98117.66;5084125;28;20036;-80
2023/11/03 07:03:21;;;;;;;0.10;0.10;;;;;;;10.99;76.24;98121.19;5084069;28;20043;-80
2023/11/03 07:05:47;;;;;;;0.10;0.10;;;;;;;11.20;75.41;98118.06;5079310;28;20407;-79
2023/11/03 07:08:13;;;;;;;0.10;0.10;;;;;;;11.22;75.58;98126.75;5094153;28;20028;-81
2023/11/03 07:10:39;;;;;;;0.10;0.10;;;;;;;11.14;75.74;98123.75;5077590;28;20527;-78
2023/11/03 07:13:05;;;;;;;0.10;0.10;;;;;;;11.19;75.32;98119.03;5088571;28;20035;-79
2023/11/03 07:15:32;;;;;;;0.10;0.10;;;;;;;11.21;75.44;98133.00;5090525;28;20044;-79
2023/11/03 07:17:59;;;;;;;0.10;0.10;;;;;;;11.36;75.52;98138.25;5098059;28;20495;-79
2023/11/03 07:20:26;;;;;;;0.10;0.10;;;;;;;11.25;75.41;98145.13;5097551;28;20043;-79
2023/11/03 07:22:52;;;;;;;0.28;0.28;;;;;;;11.23;75.37;98149.69;5095673;28;20525;-80
2023/11/03 07:25:19;;;;;;;0.22;0.22;;;;;;;11.31;75.52;98152.69;5088072;28;20028;-80
2023/11/03 07:27:47;;;;;;;0.10;0.10;;;;;;;11.20;75.69;98157.81;5093472;28;20055;-79
2023/11/03 07:30:14;;;;;;;0.15;0.15;;;;;;;11.33;75.78;98164.00;5088613;28;20080;-80
2023/11/03 07:32:44;;;;;;;0.10;0.10;;;;;;;11.29;75.82;98154.56;5093128;28;20031;-80
2023/11/03 07:35:11;;;;;;;0.10;0.10;;;;;;;11.17;75.44;98150.06;5089191;28;20592;-78
2023/11/03 07:37:37;;;;;;;0.10;0.10;;;;;;;11.36;75.76;98162.97;5094413;28;20020;-79
2023/11/03 07:40:05;;;;;;;0.20;0.20;;;;;;;11.29;75.66;98169.59;5086070;28;20037;-79
2023/11/03 07:42:31;;;;;;;0.10;0.10;;;;;;;11.39;75.02;98167.19;5078653;28;20110;-79
2023/11/03 07:44:57;;;;;;;0.10;0.10;;;;;;;11.45;74.98;98169.44;5089954;28;20036;-80
2023/11/03 07:47:24;;;;;;;0.20;0.20;;;;;;;11.44;75.38;98175.69;5100164;28;20033;-80
2023/11/03 07:49:50;;;;;;;0.20;0.20;;;;;;;11.51;75.40;98173.50;5086026;28;20032;-80
2023/11/03 07:52:17;;;;;;;0.20;0.20;;;;;;;11.42;75.22;98175.81;5099639;28;20054;-80
2023/11/03 07:54:43;;;;;;;0.10;0.10;;;;;;;11.41;75.05;98173.25;5090449;28;20039;-81
2023/11/03 07:57:09;;;;;;;0.15;0.15;;;;;;;11.39;74.98;98176.03;5091124;28;20084;-79
2023/11/03 07:59:35;;;;;;;0.10;0.10;;;;;;;11.43;74.64;98200.53;5086614;28;20029;-79
2023/11/03 08:02:02;;;;;;;0.20;0.20;;;;;;;11.34;75.15;98186.09;5093585;28;20016;-78
2023/11/03 08:04:28;;;;;;;0.10;0.10;;;;;;;11.32;75.56;98190.63;5092501;28;20035;-80
2023/11/03 08:06:56;;;;;;;0.10;0.10;;;;;;;11.36;75.36;98197.41;5105508;28;20029;-79
2023/11/03 08:09:22;;;;;;;0.10;0.10;;;;;;;11.43;74.38;98201.38;5095371;28;20032;-81
2023/11/03 08:11:48;;;;;;;0.10;0.10;;;;;;;11.47;74.73;98209.97;5091491;28;20032;-80
2023/11/03 08:14:14;;;;;;;2.38;2.05;;;;;;;11.38;74.77;98231.81;5102160;28;20028;-81
2023/11/03 08:16:44;;;;;;;0.10;0.10;;;;;;;11.43;74.66;98232.34;5104661;28;20032;-83
2023/11/03 08:19:12;;;;;;;0.20;0.20;;;;;;;11.42;74.78;98220.88;5096324;28;20036;-82
2023/11/03 08:21:41;;;;;;;0.20;0.20;;;;;;;11.48;73.93;98225.78;5090938;28;20426;-81
2023/11/03 08:24:10;;;;;;;0.10;0.10;;;;;;;11.47;74.17;98231.19;5097963;28;20040;-80
2023/11/03 08:26:37;;;;;;;0.20;0.20;;;;;;;11.55;73.79;98249.25;5102470;28;20020;-80
2023/11/03 08:29:03;;;;;;;0.20;0.20;;;;;;;11.52;74.06;98244.16;5092456;28;20040;-79
2023/11/03 08:31:30;;;;;;;0.22;0.22;;;;;;;11.42;74.42;98243.91;5098866;28;20028;-80
2023/11/03 08:33:56;;;;;;;0.10;0.10;;;;;;;11.53;73.90;98257.31;5088654;28;20084;-79
2023/11/03 08:36:24;;;;;;;0.20;0.20;;;;;;;11.59;74.32;98256.03;5093454;28;20029;-80
2023/11/03 08:38:51;;;;;;;0.17;0.17;;;;;;;11.63;74.02;98276.13;5079013;28;20056;-79
2023/11/03 08:41:19;;;;;;;0.15;0.15;;;;;;;11.64;74.71;98267.22;5087191;28;20119;-81
2023/11/03 08:43:46;;;;;;;0.13;0.13;;;;;;;11.70;74.27;98268.59;5089546;28;20028;-82
2023/11/03 08:46:13;;;;;;;0.10;0.10;;;;;;;11.87;73.80;98275.44;5077042;28;20037;-80
2023/11/03 08:48:41;;;;;;;9.75;3.38;;;;;;;11.89;73.81;98286.81;5080916;28;20037;-81
2023/11/03 08:51:08;;;;;;;0.10;0.10;;;;;;;11.97;73.79;98277.44;5081850;28;20062;-81
2023/11/03 08:53:34;;;;;;;0.10;0.10;;;;;;;11.89;73.39;98281.50;5080815;28;20039;-80
2023/11/03 08:56:01;;;;;;;0.30;0.30;;;;;;;11.95;73.10;98289.03;5071868;28;20025;-81
2023/11/03 08:58:30;;;;;;;0.10;0.10;;;;;;;12.09;73.16;98285.50;5085490;28;20080;-81
2023/11/03 09:00:56;;;;;;;25.55;1.75;;;;;;;12.14;73.34;98294.84;5087785;28;20024;-80
2023/11/03 09:03:22;;;;;;;0.10;0.10;;;;;;;12.17;72.51;98288.47;5080968;28;20044;-81
2023/11/03 09:05:49;;;;;;;0.20;0.20;;;;;;;12.05;73.12;98295.47;5081363;28;20020;-82
2023/11/03 09:08:15;;;;;;;0.13;0.13;;;;;;;12.03;72.91;98293.88;5087038;28;20017;-81
2023/11/03 09:10:41;;;;;;;0.10;0.10;;;;;;;12.06;72.75;98301.63;5077784;28;20525;-81
2023/11/03 09:13:08;;;;;;;0.10;0.10;;;;;;;12.02;72.89;98300.13;5081292;28;20388;-80
2023/11/03 09:15:34;;;;;;;0.20;0.20;;;;;;;12.10;72.57;98308.41;5081651;28;20028;-80
2023/11/03 09:18:00;;;;;;;0.10;0.10;;;;;;;12.04;72.63;98303.56;5090292;28;20028;-81
2023/11/03 09:20:26;;;;;;;2.90;1.30;;;;;;;12.21;72.10;98315.69;5079967;28;21172;-81
2023/11/03 09:22:52;;;;;;;0.10;0.10;;;;;;;12.17;72.09;98308.88;5077527;28;20024;-81
2023/11/03 09:25:18;;;;;;;1.67;1.58;;;;;;;12.17;72.23;98336.25;5083379;28;20502;-82
2023/11/03 09:27:44;;;;;;;2.33;2.17;;;;;;;12.14;72.34;98304.63;5078776;28;20067;-82
2023/11/03 09:30:10;;;;;;;0.10;0.10;;;;;;;12.00;72.70;98312.66;5080916;28;20071;-82
2023/11/03 09:32:38;;;;;;;1.20;1.20;;;;;;;12.14;72.28;98318.75;5086718;28;20022;-82
2023/11/03 09:35:05;;;;;;;0.10;0.10;;;;;;;12.07;72.75;98319.25;5084131;28;20082;-81
2023/11/03 09:37:31;;;;;;;0.52;0.52;;;;;;;12.13;72.73;98325.00;5074066;28;20044;-82
2023/11/03 09:39:58;;;;;;;0.15;0.15;;;;;;;12.23;72.21;98321.75;5085709;28;20036;-83
2023/11/03 09:42:24;;;;;;;0.13;0.13;;;;;;;12.37;71.55;98323.47;5082335;28;20029;-82
2023/11/03 09:44:50;;;;;;;0.10;0.10;;;;;;;12.28;72.17;98336.38;5086451;28;20036;-81
2023/11/03 09:47:17;;;;;;;0.10;0.10;;;;;;;12.38;71.69;98330.47;5078595;28;20029;-82
2023/11/03 09:49:43;;;;;;;0.10;0.10;;;;;;;12.44;71.71;98333.56;5087224;28;20039;-82
2023/11/03 09:52:13;;;;;;;0.20;0.20;;;;;;;12.64;70.85;98333.16;5093324;28;20170;-82
2023/11/03 09:54:39;;;;;;;0.10;0.10;;;;;;;12.43;72.16;98333.66;5090784;28;20029;-81
2023/11/03 09:57:08;;;;;;;0.10;0.10;;;;;;;12.56;71.62;98337.19;5088218;28;20507;-82
2023/11/03 09:59:35;;;;;;;0.10;0.10;;;;;;;12.58;71.28;98343.22;5087173;28;20066;-81
2023/11/03 10:02:09;;;;;;;0.10;0.10;;;;;;;12.64;71.37;98349.09;5087401;28;20100;-83
2023/11/03 10:04:39;;;;;;;1.85;0.82;;;;;;;12.56;71.70;98347.81;5085299;28;20028;-82
2023/11/03 10:07:10;;;;;;;0.10;0.10;;;;;;;12.57;71.16;98341.56;5087458;28;20067;-83
2023/11/03 10:09:38;;;;;;;0.40;0.40;;;;;;;12.64;71.26;98351.75;5094217;28;20164;-82
2023/11/03 10:12:10;;;;;;;0.10;0.10;;;;;;;12.65;70.72;98334.84;5098068;28;20340;-83
2023/11/03 10:14:39;;;;;;;0.20;0.20;;;;;;;12.65;70.82;98334.84;5085772;28;20028;-83
2023/11/03 10:17:05;;;;;;;0.10;0.10;;;;;;;12.81;70.86;98340.81;5083214;28;20080;-83
2023/11/03 10:19:33;;;;;;;1.85;1.75;;;;;;;12.67;70.85;98346.22;5088237;28;20032;-83
2023/11/03 10:22:06;;;;;;;0.10;0.10;;;;;;;12.75;70.21;98347.38;5090286;28;20162;-83
2023/11/03 10:24:33;;;;;;;0.17;0.17;;;;;;;12.87;70.14;98345.72;5083997;28;20091;-83
2023/11/03 10:27:00;;;;;;;0.10;0.10;;;;;;;12.83;70.38;98344.19;5091243;28;20064;-83
2023/11/03 10:29:27;;;;;;;0.10;0.10;;;;;;;12.94;69.69;98341.63;5092631;28;20025;-83
2023/11/03 10:31:53;;;;;;;0.10;0.10;;;;;;;12.86;69.28;98351.97;5098183;28;20050;-82
2023/11/03 10:34:20;;;;;;;0.10;0.10;;;;;;;12.88;69.27;98347.38;5098801;28;20039;-83
2023/11/03 10:36:51;;;;;;;0.10;0.10;;;;;;;12.99;68.86;98359.94;5100066;28;20032;-83
2023/11/03 10:39:18;;;;;;;0.10;0.10;;;;;;;13.10;69.14;98361.84;5093410;28;20028;-83
2023/11/03 10:41:44;;;;;;;18.20;2.55;;;;;;;13.18;69.58;98364.78;5102998;28;20069;-83
2023/11/03 10:44:13;;;;;;;0.30;0.30;;;;;;;13.18;69.17;98356.81;5092492;28;20019;-83
2023/11/03 10:46:51;;;;;;;0.10;0.10;;;;;;;13.19;69.55;98350.53;5097315;28;20024;-83
2023/11/03 10:49:40;;;;;;;0.10;0.10;;;;;;;13.36;68.55;98353.84;5092099;28;20024;-81
2023/11/03 10:52:16;;;;;;;0.20;0.20;;;;;;;13.42;68.59;98356.94;5088940;28;20033;-81
2023/11/03 10:57:36;;;;;;;0.20;0.20;;;;;;;13.48;67.48;98366.25;5155096;27;20386;-80
2023/11/03 11:00:20;;;;;;;0.10;0.10;;;;;;;13.62;67.29;98356.44;5124037;28;20036;-82
2023/11/03 11:06:17;;;;;;;0.10;0.10;;;;;;;13.48;66.20;98368.91;5106871;27;20779;-81
2023/11/03 11:08:46;;;;;;;0.50;0.50;;;;;;;13.32;66.46;98386.91;5101921;28;20051;-80
2023/11/03 11:11:12;;;;;;;0.10;0.10;;;;;;;13.33;66.53;98388.63;5105558;28;20031;-80
2023/11/03 11:13:42;;;;;;;0.10;0.10;;;;;;;13.36;66.04;98372.47;5103794;28;20054;-80
2023/11/03 11:16:10;;;;;;;0.30;0.30;;;;;;;13.40;65.99;98379.28;5105760;28;20030;-80
2023/11/03 11:18:51;;;;;;;0.20;0.20;;;;;;;13.54;65.85;98387.09;5106580;28;20024;-81
2023/11/03 11:21:29;;;;;;;2.13;1.15;;;;;;;13.49;65.66;98391.91;5105551;28;20032;-80
2023/11/03 11:23:56;;;;;;;0.10;0.10;;;;;;;13.55;65.53;98393.28;5109277;28;20502;-80
2023/11/03 11:26:25;;;;;;;1.70;1.65;;;;;;;13.47;65.84;98391.19;5106348;28;20069;-79
2023/11/03 11:28:51;;;;;;;0.55;0.35;;;;;;;13.48;65.54;98395.53;5112460;28;20051;-80
2023/11/03 11:36:43;;;;;;;1.45;1.35;;;;;;;13.86;64.80;98381.28;5091555;27;20394;-80
2023/11/03 11:39:16;;;;;;;0.20;0.20;;;;;;;14.00;65.01;98382.91;5073636;28;20408;-77
2023/11/03 11:41:49;;;;;;;0.10;0.10;;;;;;;14.06;64.59;98397.59;5080057;28;20102;-80
2023/11/03 11:44:19;;;;;;;1.55;1.52;;;;;;;14.05;63.34;98401.22;5076142;28;20610;-81